Time;durP1;ratioP1;P1;durP2;ratioP2;P2;SDS_P1;SDS_P2;PMS_P1;PMS_P2;Temp;Humidity;BMP_temperature;BMP_pressure;BME280_temperature;BME280_humidity;BME280_pressure;Samples;Min_cycle;Max_cycle;Signal;HPM_P1;HPM_P2
2022/02/14 00:00:52;;;;;;;10.73;3.10;;;;;;;;;;5045082;28;20193;-67
2022/02/14 00:03:17;;;;;;;6.70;3.27;;;;;;;;;;5037187;28;20263;-67
2022/02/14 00:05:42;;;;;;;6.30;2.45;;;;;;;;;;5042473;28;20247;-67
2022/02/14 00:08:08;;;;;;;7.43;2.83;;;;;;;;;;5044150;28;20216;-66
2022/02/14 00:10:33;;;;;;;12.25;2.65;;;;;;;;;;5046123;28;20268;-66
2022/02/14 00:12:59;;;;;;;4.85;2.53;;;;;;;;;;5047939;28;20941;-67
2022/02/14 00:15:24;;;;;;;6.57;2.63;;;;;;;;;;5047066;28;20281;-67
2022/02/14 00:17:50;;;;;;;10.10;2.80;;;;;;;;;;5043031;28;20242;-66
2022/02/14 00:20:15;;;;;;;4.47;2.42;;;;;;;;;;5041333;28;20189;-66
2022/02/14 00:22:41;;;;;;;8.63;2.92;;;;;;;;;;5038616;28;20312;-67
2022/02/14 00:25:07;;;;;;;9.20;3.00;;;;;;;;;;5039011;28;20649;-67
2022/02/14 00:27:33;;;;;;;5.47;2.75;;;;;;;;;;5042319;28;20596;-66
2022/02/14 00:29:58;;;;;;;10.80;2.90;;;;;;;;;;5038340;28;20223;-66
2022/02/14 00:32:23;;;;;;;5.22;2.13;;;;;;;;;;5042085;28;20200;-67
2022/02/14 00:34:50;;;;;;;8.30;3.00;;;;;;;;;;5036961;28;20187;-67
2022/02/14 00:37:16;;;;;;;8.32;2.50;;;;;;;;;;5043851;28;20868;-67
2022/02/14 00:39:41;;;;;;;9.88;2.60;;;;;;;;;;5036333;28;20276;-67
2022/02/14 00:42:07;;;;;;;6.22;2.58;;;;;;;;;;5041562;28;20435;-68
2022/02/14 00:44:32;;;;;;;5.72;2.67;;;;;;;;;;5041774;28;20570;-68
2022/02/14 00:46:58;;;;;;;8.55;2.83;;;;;;;;;;5041272;28;20193;-67
2022/02/14 00:49:23;;;;;;;5.07;2.47;;;;;;;;;;5035782;28;20235;-67
2022/02/14 00:51:49;;;;;;;6.72;2.45;;;;;;;;;;5043488;28;20184;-67
2022/02/14 00:54:14;;;;;;;5.28;2.60;;;;;;;;;;5040557;28;20181;-66
2022/02/14 00:56:40;;;;;;;6.15;2.28;;;;;;;;;;5040750;28;20182;-66
2022/02/14 00:59:05;;;;;;;5.18;2.55;;;;;;;;;;5044371;28;20173;-67
2022/02/14 01:01:30;;;;;;;6.22;2.47;;;;;;;;;;5038177;28;20193;-67
2022/02/14 01:03:56;;;;;;;7.63;2.88;;;;;;;;;;5042609;28;21751;-66
2022/02/14 01:06:22;;;;;;;6.60;2.70;;;;;;;;;;5040185;28;20580;-67
2022/02/14 01:08:47;;;;;;;6.57;2.53;;;;;;;;;;5042519;28;20193;-67
2022/02/14 01:11:13;;;;;;;6.32;2.70;;;;;;;;;;5045680;28;20185;-67
2022/02/14 01:13:39;;;;;;;7.63;2.95;;;;;;;;;;5045162;28;20208;-67
2022/02/14 01:16:04;;;;;;;9.68;2.47;;;;;;;;;;5043043;28;20703;-67
2022/02/14 01:18:30;;;;;;;9.45;3.05;;;;;;;;;;5045529;28;20185;-67
2022/02/14 01:20:55;;;;;;;6.05;2.72;;;;;;;;;;5043605;28;20192;-67
2022/02/14 01:23:20;;;;;;;9.07;2.50;;;;;;;;;;5046196;28;20715;-67
2022/02/14 01:25:46;;;;;;;9.32;2.47;;;;;;;;;;5040500;28;20369;-67
2022/02/14 01:28:11;;;;;;;5.70;2.50;;;;;;;;;;5044607;28;20185;-67
2022/02/14 01:30:37;;;;;;;5.65;2.30;;;;;;;;;;5040972;28;20210;-67
2022/02/14 01:33:02;;;;;;;7.40;3.42;;;;;;;;;;5040242;28;20181;-66
2022/02/14 01:35:27;;;;;;;10.40;2.70;;;;;;;;;;5044694;28;20200;-66
2022/02/14 01:37:54;;;;;;;6.82;2.90;;;;;;;;;;5041190;28;20272;-66
2022/02/14 01:40:20;;;;;;;7.07;2.60;;;;;;;;;;5044302;28;20263;-66
2022/02/14 01:42:45;;;;;;;6.88;2.30;;;;;;;;;;5045720;28;20212;-66
2022/02/14 01:45:11;;;;;;;8.73;2.67;;;;;;;;;;5044121;28;20185;-67
2022/02/14 01:47:38;;;;;;;5.07;2.45;;;;;;;;;;5043134;28;20177;-67
2022/02/14 01:50:04;;;;;;;9.07;2.78;;;;;;;;;;5044286;28;20260;-67
2022/02/14 01:52:30;;;;;;;6.55;2.88;;;;;;;;;;5046505;28;20631;-67
2022/02/14 01:54:56;;;;;;;6.13;2.45;;;;;;;;;;5038815;28;20185;-67
2022/02/14 01:57:22;;;;;;;5.05;2.38;;;;;;;;;;5041243;28;20608;-68
2022/02/14 01:59:47;;;;;;;9.00;2.60;;;;;;;;;;5044398;28;20204;-67
2022/02/14 02:02:13;;;;;;;7.22;2.53;;;;;;;;;;5040576;28;20237;-67
2022/02/14 02:04:42;;;;;;;10.20;2.50;;;;;;;;;;5039908;28;20370;-66
2022/02/14 02:07:08;;;;;;;6.30;2.58;;;;;;;;;;5049381;28;20274;-66
2022/02/14 02:09:35;;;;;;;8.57;2.60;;;;;;;;;;5045514;28;20272;-65
2022/02/14 02:14:44;;;;;;;7.35;2.42;;;;;;;;;;5043022;28;20204;-66
2022/02/14 02:17:10;;;;;;;10.77;2.53;;;;;;;;;;5044509;28;20190;-66
2022/02/14 02:19:35;;;;;;;11.93;2.60;;;;;;;;;;5039767;28;20200;-66
2022/02/14 02:22:01;;;;;;;7.68;2.42;;;;;;;;;;5046697;28;20544;-66
2022/02/14 02:24:26;;;;;;;7.70;2.65;;;;;;;;;;5045498;28;20192;-67
2022/02/14 02:27:00;;;;;;;6.55;2.58;;;;;;;;;;5044107;28;20181;-67
2022/02/14 02:29:26;;;;;;;6.05;2.20;;;;;;;;;;5044238;28;20192;-66
2022/02/14 02:31:52;;;;;;;7.75;2.67;;;;;;;;;;5049534;28;20289;-67
2022/02/14 02:34:18;;;;;;;5.28;2.25;;;;;;;;;;5044343;28;20204;-66
2022/02/14 02:36:47;;;;;;;8.80;2.70;;;;;;;;;;5052771;28;20185;-68
2022/02/14 02:39:13;;;;;;;9.32;2.90;;;;;;;;;;5042353;28;20185;-67
2022/02/14 02:41:38;;;;;;;7.38;2.72;;;;;;;;;;5044645;28;20269;-67
2022/02/14 02:44:04;;;;;;;8.30;2.53;;;;;;;;;;5042533;28;20215;-67
2022/02/14 02:46:29;;;;;;;10.35;2.85;;;;;;;;;;5043960;28;20185;-67
2022/02/14 02:48:54;;;;;;;7.25;2.55;;;;;;;;;;5040869;28;20221;-68
2022/02/14 02:51:20;;;;;;;7.00;2.83;;;;;;;;;;5038998;28;20276;-67
2022/02/14 02:53:45;;;;;;;4.80;2.30;;;;;;;;;;5038010;28;20732;-67
2022/02/14 02:56:11;;;;;;;8.10;2.67;;;;;;;;;;5041818;28;20181;-66
2022/02/14 02:58:36;;;;;;;8.25;2.65;;;;;;;;;;5046229;28;20198;-67
2022/02/14 03:01:02;;;;;;;8.10;2.85;;;;;;;;;;5043382;28;20209;-67
2022/02/14 03:03:28;;;;;;;8.75;2.38;;;;;;;;;;5042686;28;20255;-66
2022/02/14 03:05:53;;;;;;;8.98;2.72;;;;;;;;;;5043438;28;20221;-67
2022/02/14 03:08:18;;;;;;;7.15;3.70;;;;;;;;;;5040328;28;20190;-66
2022/02/14 03:10:44;;;;;;;8.93;2.70;;;;;;;;;;5042743;28;20217;-66
2022/02/14 03:13:09;;;;;;;7.70;2.40;;;;;;;;;;5038447;28;20192;-66
2022/02/14 03:15:35;;;;;;;5.43;2.20;;;;;;;;;;5044536;28;20181;-66
2022/02/14 03:18:00;;;;;;;9.50;2.30;;;;;;;;;;5044089;28;20185;-67
2022/02/14 03:20:25;;;;;;;7.43;2.35;;;;;;;;;;5044119;28;20657;-68
2022/02/14 03:22:51;;;;;;;4.15;2.10;;;;;;;;;;5039165;28;20211;-67
2022/02/14 03:25:16;;;;;;;5.40;2.08;;;;;;;;;;5044261;28;20203;-67
2022/02/14 03:27:41;;;;;;;7.65;1.90;;;;;;;;;;5041912;28;20417;-66
2022/02/14 03:30:07;;;;;;;7.53;2.35;;;;;;;;;;5040872;28;20223;-67
2022/02/14 03:32:32;;;;;;;5.47;2.42;;;;;;;;;;5041076;28;20553;-67
2022/02/14 03:34:58;;;;;;;5.53;1.83;;;;;;;;;;5040818;28;20640;-67
2022/02/14 03:37:24;;;;;;;8.00;2.03;;;;;;;;;;5036257;28;20606;-67
2022/02/14 03:39:49;;;;;;;5.75;2.42;;;;;;;;;;5043591;28;20237;-66
2022/02/14 03:42:14;;;;;;;7.18;2.05;;;;;;;;;;5043569;28;20194;-67
2022/02/14 03:44:39;;;;;;;4.15;1.80;;;;;;;;;;5040573;28;20629;-67
2022/02/14 03:47:05;;;;;;;5.80;2.05;;;;;;;;;;5044493;28;20617;-67
2022/02/14 03:49:30;;;;;;;7.82;2.13;;;;;;;;;;5039935;28;20661;-67
2022/02/14 03:51:55;;;;;;;6.80;2.00;;;;;;;;;;5041836;28;20194;-67
2022/02/14 03:54:21;;;;;;;7.22;2.33;;;;;;;;;;5041127;28;20193;-67
2022/02/14 03:56:46;;;;;;;5.88;2.08;;;;;;;;;;5049045;28;20219;-67
2022/02/14 03:59:11;;;;;;;4.75;1.90;;;;;;;;;;5041772;28;20503;-67
2022/02/14 04:01:37;;;;;;;5.70;2.13;;;;;;;;;;5043360;28;20183;-67
2022/02/14 04:04:02;;;;;;;4.22;1.90;;;;;;;;;;5043346;28;20294;-68
2022/02/14 04:06:27;;;;;;;6.72;2.38;;;;;;;;;;5050759;28;20224;-67
2022/02/14 04:08:53;;;;;;;7.30;2.45;;;;;;;;;;5042697;28;20192;-67
2022/02/14 04:11:18;;;;;;;6.28;2.10;;;;;;;;;;5043980;28;20189;-66
2022/02/14 04:13:43;;;;;;;7.57;2.00;;;;;;;;;;5039675;28;20313;-66
2022/02/14 04:16:09;;;;;;;13.23;2.25;;;;;;;;;;5046735;28;20181;-67
2022/02/14 04:18:34;;;;;;;8.88;2.90;;;;;;;;;;5043337;28;20237;-66
2022/02/14 04:21:02;;;;;;;10.85;2.30;;;;;;;;;;5040618;28;20543;-67
2022/02/14 04:23:28;;;;;;;5.00;2.33;;;;;;;;;;5038272;28;20211;-67
2022/02/14 04:25:53;;;;;;;7.18;2.15;;;;;;;;;;5046506;28;20189;-67
2022/02/14 04:28:19;;;;;;;14.32;2.28;;;;;;;;;;5043815;28;20239;-67
2022/02/14 04:30:45;;;;;;;7.93;2.15;;;;;;;;;;5043197;28;20205;-67
2022/02/14 04:33:10;;;;;;;8.40;2.00;;;;;;;;;;5043178;28;20568;-67
2022/02/14 04:35:36;;;;;;;5.30;2.10;;;;;;;;;;5041697;28;20188;-67
2022/02/14 04:38:01;;;;;;;8.27;1.65;;;;;;;;;;5032885;28;20185;-67
2022/02/14 04:40:29;;;;;;;5.88;2.15;;;;;;;;;;5046046;28;20266;-67
2022/02/14 04:42:59;;;;;;;6.65;2.10;;;;;;;;;;5033319;28;20233;-67
2022/02/14 04:45:25;;;;;;;8.27;1.90;;;;;;;;;;5047077;28;20268;-67
2022/02/14 04:47:51;;;;;;;6.30;2.20;;;;;;;;;;5047604;28;20272;-67
2022/02/14 04:50:16;;;;;;;6.85;1.92;;;;;;;;;;5047185;28;20595;-67
2022/02/14 04:52:42;;;;;;;6.75;2.25;;;;;;;;;;5037027;28;20727;-67
2022/02/14 04:55:08;;;;;;;5.47;2.40;;;;;;;;;;5044288;28;20247;-66
2022/02/14 04:57:34;;;;;;;4.90;1.70;;;;;;;;;;5038428;28;20220;-67
2022/02/14 05:00:00;;;;;;;9.88;2.33;;;;;;;;;;5044049;28;20213;-67
2022/02/14 05:02:25;;;;;;;4.93;2.08;;;;;;;;;;5039735;28;20204;-67
2022/02/14 05:04:50;;;;;;;4.90;1.77;;;;;;;;;;5057746;28;20215;-68
2022/02/14 05:07:16;;;;;;;5.95;1.75;;;;;;;;;;5049415;28;20597;-67
2022/02/14 05:09:41;;;;;;;7.20;1.77;;;;;;;;;;5045744;28;20192;-67
2022/02/14 05:12:07;;;;;;;7.25;1.95;;;;;;;;;;5049229;28;20183;-67
2022/02/14 05:14:33;;;;;;;7.35;2.08;;;;;;;;;;5044063;28;20212;-67
2022/02/14 05:16:58;;;;;;;7.07;2.05;;;;;;;;;;5042385;28;20666;-67
2022/02/14 05:19:23;;;;;;;5.22;1.52;;;;;;;;;;5045228;28;20261;-66
2022/02/14 05:21:49;;;;;;;9.15;2.00;;;;;;;;;;5044023;28;20748;-71
2022/02/14 05:24:14;;;;;;;4.03;2.00;;;;;;;;;;5044267;28;20213;-67
2022/02/14 05:26:40;;;;;;;6.07;1.95;;;;;;;;;;5043521;28;20221;-66
2022/02/14 05:29:06;;;;;;;5.80;1.80;;;;;;;;;;5043151;28;20308;-67
2022/02/14 05:31:31;;;;;;;7.93;2.00;;;;;;;;;;5041778;28;20615;-67
2022/02/14 05:33:56;;;;;;;7.28;1.88;;;;;;;;;;5043049;28;20272;-67
2022/02/14 05:36:22;;;;;;;5.57;2.08;;;;;;;;;;5039588;28;20284;-67
2022/02/14 05:38:48;;;;;;;6.70;2.10;;;;;;;;;;5040701;28;20953;-68
2022/02/14 05:41:14;;;;;;;4.18;1.95;;;;;;;;;;5045750;28;20189;-67
2022/02/14 05:43:40;;;;;;;7.10;1.90;;;;;;;;;;5045189;28;20212;-67
2022/02/14 05:46:13;;;;;;;7.47;1.83;;;;;;;;;;5038829;28;20560;-67
2022/02/14 05:48:39;;;;;;;5.32;1.50;;;;;;;;;;5049524;28;20188;-67
2022/02/14 05:51:04;;;;;;;6.32;1.77;;;;;;;;;;5041018;28;20277;-67
2022/02/14 05:53:29;;;;;;;7.60;1.88;;;;;;;;;;5046053;28;20266;-67
2022/02/14 05:55:55;;;;;;;5.05;1.80;;;;;;;;;;5041404;28;20239;-67
2022/02/14 05:58:20;;;;;;;3.63;1.50;;;;;;;;;;5046692;28;20559;-67
2022/02/14 06:00:45;;;;;;;4.90;2.03;;;;;;;;;;5042700;28;20240;-67
2022/02/14 06:03:11;;;;;;;3.83;2.00;;;;;;;;;;5044485;28;20667;-66
2022/02/14 06:05:36;;;;;;;4.10;1.83;;;;;;;;;;5039531;28;20672;-68
2022/02/14 06:08:02;;;;;;;8.75;1.90;;;;;;;;;;5038253;28;20186;-67
2022/02/14 06:10:28;;;;;;;7.50;1.77;;;;;;;;;;5041167;28;20206;-67
2022/02/14 06:12:53;;;;;;;4.38;1.60;;;;;;;;;;5045418;28;20269;-67
2022/02/14 06:15:19;;;;;;;4.53;1.65;;;;;;;;;;5042487;28;20352;-67
2022/02/14 06:17:45;;;;;;;6.45;1.67;;;;;;;;;;5053305;28;20559;-67
2022/02/14 06:20:11;;;;;;;3.83;1.80;;;;;;;;;;5040518;28;20184;-67
2022/02/14 06:22:36;;;;;;;6.22;1.80;;;;;;;;;;5042835;28;20267;-67
2022/02/14 06:25:01;;;;;;;7.30;2.17;;;;;;;;;;5046634;28;20673;-67
2022/02/14 06:27:27;;;;;;;2.95;1.80;;;;;;;;;;5054365;28;20213;-67
2022/02/14 06:29:52;;;;;;;7.60;2.30;;;;;;;;;;5046564;28;20287;-66
2022/02/14 06:32:17;;;;;;;3.17;1.70;;;;;;;;;;5042263;28;20262;-66
2022/02/14 06:34:43;;;;;;;5.22;1.80;;;;;;;;;;5044221;28;20186;-67
2022/02/14 06:37:09;;;;;;;6.82;1.90;;;;;;;;;;5044409;28;20199;-67
2022/02/14 06:39:34;;;;;;;4.78;1.60;;;;;;;;;;5046610;28;20641;-67
2022/02/14 06:42:00;;;;;;;7.05;1.85;;;;;;;;;;5042898;28;20190;-66
2022/02/14 06:44:25;;;;;;;6.97;2.17;;;;;;;;;;5040010;28;20178;-67
2022/02/14 06:46:53;;;;;;;4.93;1.80;;;;;;;;;;5043528;28;20239;-67
2022/02/14 06:49:18;;;;;;;7.70;1.83;;;;;;;;;;5043610;28;20189;-67
2022/02/14 06:51:43;;;;;;;8.95;1.77;;;;;;;;;;5044172;28;20504;-68
2022/02/14 06:54:09;;;;;;;7.03;1.80;;;;;;;;;;5045545;28;21329;-67
2022/02/14 06:56:34;;;;;;;8.45;1.90;;;;;;;;;;5044583;28;20243;-68
2022/02/14 06:59:00;;;;;;;7.20;1.70;;;;;;;;;;5045671;28;20254;-67
2022/02/14 07:01:25;;;;;;;5.30;1.40;;;;;;;;;;5043234;28;20200;-66
2022/02/14 07:03:50;;;;;;;4.60;2.05;;;;;;;;;;5055313;28;20435;-67
2022/02/14 07:06:17;;;;;;;4.38;1.60;;;;;;;;;;5047393;28;20311;-66
2022/02/14 07:08:44;;;;;;;3.92;1.70;;;;;;;;;;5050992;28;20204;-67
2022/02/14 07:11:09;;;;;;;3.58;1.70;;;;;;;;;;5044404;28;20189;-67
2022/02/14 07:13:34;;;;;;;4.10;1.63;;;;;;;;;;5045676;28;20271;-66
2022/02/14 07:16:00;;;;;;;4.97;1.75;;;;;;;;;;5042534;28;20264;-67
2022/02/14 07:18:26;;;;;;;4.72;1.90;;;;;;;;;;5046521;28;20445;-67
2022/02/14 07:20:51;;;;;;;3.88;1.70;;;;;;;;;;5045778;28;20181;-67
2022/02/14 07:23:16;;;;;;;7.80;1.70;;;;;;;;;;5041116;28;20801;-69
2022/02/14 07:25:42;;;;;;;6.75;1.80;;;;;;;;;;5043435;28;21215;-66
2022/02/14 07:28:07;;;;;;;5.35;1.98;;;;;;;;;;5039109;28;20669;-66
2022/02/14 07:30:32;;;;;;;3.80;1.65;;;;;;;;;;5038453;28;20201;-66
2022/02/14 07:32:58;;;;;;;3.08;1.52;;;;;;;;;;5040540;28;20217;-66
2022/02/14 07:35:23;;;;;;;5.18;1.90;;;;;;;;;;5043406;28;20182;-66
2022/02/14 07:37:49;;;;;;;6.05;1.90;;;;;;;;;;5039975;28;20228;-67
2022/02/14 07:40:16;;;;;;;4.15;1.45;;;;;;;;;;5033919;28;20209;-67
2022/02/14 07:42:42;;;;;;;4.50;1.60;;;;;;;;;;5035801;28;20609;-67
2022/02/14 07:45:09;;;;;;;3.47;1.40;;;;;;;;;;5043484;28;20181;-67
2022/02/14 07:47:35;;;;;;;2.00;1.48;;;;;;;;;;5038933;28;20565;-67
2022/02/14 07:50:00;;;;;;;2.90;1.58;;;;;;;;;;5041641;28;20273;-68
2022/02/14 07:52:26;;;;;;;7.40;1.85;;;;;;;;;;5037732;28;20181;-68
2022/02/14 07:54:53;;;;;;;5.05;1.50;;;;;;;;;;5041036;28;20208;-67
2022/02/14 07:57:18;;;;;;;7.32;2.08;;;;;;;;;;5043099;28;20215;-68
2022/02/14 07:59:44;;;;;;;4.25;1.50;;;;;;;;;;5044646;28;20197;-67
2022/02/14 08:02:10;;;;;;;4.57;1.60;;;;;;;;;;5044252;28;20208;-67
2022/02/14 08:04:35;;;;;;;2.83;1.23;;;;;;;;;;5037607;28;20529;-67
2022/02/14 08:07:06;;;;;;;4.82;1.88;;;;;;;;;;5041035;28;20225;-67
2022/02/14 08:09:31;;;;;;;4.65;1.70;;;;;;;;;;5043206;28;20307;-67
2022/02/14 08:11:56;;;;;;;2.92;1.38;;;;;;;;;;5047281;28;20196;-67
2022/02/14 08:14:22;;;;;;;4.47;1.70;;;;;;;;;;5045969;28;20672;-67
2022/02/14 08:16:47;;;;;;;4.60;1.30;;;;;;;;;;5043897;28;20595;-68
2022/02/14 08:19:13;;;;;;;5.03;1.75;;;;;;;;;;5042467;28;20181;-67
2022/02/14 08:21:38;;;;;;;3.47;1.70;;;;;;;;;;5041586;28;20177;-67
2022/02/14 08:24:04;;;;;;;4.70;1.52;;;;;;;;;;5041575;28;20682;-67
2022/02/14 08:26:30;;;;;;;5.13;1.60;;;;;;;;;;5043483;28;20189;-67
2022/02/14 08:28:56;;;;;;;2.33;1.40;;;;;;;;;;5039461;28;20487;-67
2022/02/14 08:31:21;;;;;;;5.10;1.50;;;;;;;;;;5047228;28;20331;-69
2022/02/14 08:33:46;;;;;;;5.32;1.67;;;;;;;;;;5041523;28;20208;-67
2022/02/14 08:36:12;;;;;;;4.47;1.52;;;;;;;;;;5037163;28;20204;-68
2022/02/14 08:38:37;;;;;;;3.15;1.70;;;;;;;;;;5045040;28;20261;-67
2022/02/14 08:41:04;;;;;;;2.08;1.40;;;;;;;;;;5049949;28;20566;-67
2022/02/14 08:43:30;;;;;;;3.88;1.42;;;;;;;;;;5046447;28;20205;-67
2022/02/14 08:45:56;;;;;;;2.40;1.52;;;;;;;;;;5053808;28;20588;-67
2022/02/14 08:48:21;;;;;;;3.33;1.77;;;;;;;;;;5040976;28;20289;-68
2022/02/14 08:50:49;;;;;;;2.95;1.50;;;;;;;;;;5044674;28;20198;-67
2022/02/14 08:53:17;;;;;;;7.25;1.75;;;;;;;;;;5041946;28;20219;-68
2022/02/14 08:55:43;;;;;;;3.72;1.38;;;;;;;;;;5049288;28;20359;-67
2022/02/14 08:58:08;;;;;;;3.08;1.40;;;;;;;;;;5040429;28;20335;-67
2022/02/14 09:00:33;;;;;;;3.20;1.48;;;;;;;;;;5041675;28;20194;-68
2022/02/14 09:03:00;;;;;;;4.60;1.25;;;;;;;;;;5044206;28;20311;-67
2022/02/14 09:05:26;;;;;;;2.35;1.27;;;;;;;;;;5047837;28;20566;-67
2022/02/14 09:07:51;;;;;;;4.35;1.52;;;;;;;;;;5052572;28;20169;-67
2022/02/14 09:10:17;;;;;;;3.88;1.60;;;;;;;;;;5047130;28;20181;-67
2022/02/14 09:12:46;;;;;;;6.85;1.50;;;;;;;;;;5050070;28;20173;-68
2022/02/14 09:15:11;;;;;;;3.70;1.75;;;;;;;;;;5044559;28;20185;-67
2022/02/14 09:17:36;;;;;;;5.97;1.55;;;;;;;;;;5049322;28;20554;-68
2022/02/14 09:20:03;;;;;;;7.72;1.88;;;;;;;;;;5040356;28;20236;-67
2022/02/14 09:22:29;;;;;;;3.83;1.50;;;;;;;;;;5053266;28;20457;-67
2022/02/14 09:24:55;;;;;;;4.15;1.67;;;;;;;;;;5043235;28;20186;-68
2022/02/14 09:27:20;;;;;;;5.45;1.67;;;;;;;;;;5043975;28;20200;-68
2022/02/14 09:29:45;;;;;;;4.72;1.95;;;;;;;;;;5045416;28;20181;-68
2022/02/14 09:32:10;;;;;;;3.38;1.67;;;;;;;;;;5052747;28;20278;-67
2022/02/14 09:34:36;;;;;;;2.85;1.70;;;;;;;;;;5046870;28;20193;-68
2022/02/14 09:37:01;;;;;;;2.55;1.42;;;;;;;;;;5050827;28;20228;-68
2022/02/14 09:39:30;;;;;;;3.40;1.38;;;;;;;;;;5050100;28;20177;-65
2022/02/14 09:42:04;;;;;;;3.70;1.23;;;;;;;;;;5049956;28;20231;-67
2022/02/14 09:44:30;;;;;;;2.17;1.27;;;;;;;;;;5046288;28;20193;-67
2022/02/14 09:46:55;;;;;;;3.40;1.30;;;;;;;;;;5046926;28;20181;-67
2022/02/14 09:49:21;;;;;;;4.93;0.75;;;;;;;;;;5047817;28;20178;-67
2022/02/14 09:51:49;;;;;;;1.42;0.98;;;;;;;;;;5046860;28;20205;-67
2022/02/14 09:54:15;;;;;;;2.13;1.10;;;;;;;;;;5053461;28;20279;-67
2022/02/14 09:56:41;;;;;;;2.38;0.65;;;;;;;;;;5047849;28;20676;-68
2022/02/14 09:59:06;;;;;;;1.73;0.90;;;;;;;;;;5060176;28;20210;-68
2022/02/14 10:01:32;;;;;;;1.45;0.60;;;;;;;;;;5050419;28;20695;-67
2022/02/14 10:04:00;;;;;;;4.57;0.80;;;;;;;;;;5053534;28;20638;-67
2022/02/14 10:06:30;;;;;;;1.40;0.95;;;;;;;;;;5043860;28;20226;-68
2022/02/14 10:09:13;;;;;;;3.00;0.52;;;;;;;;;;5040392;28;20188;-67
2022/02/14 10:11:57;;;;;;;2.75;0.93;;;;;;;;;;5044796;28;20193;-68
2022/02/14 10:14:23;;;;;;;2.00;0.50;;;;;;;;;;5047861;28;20177;-67
2022/02/14 10:17:05;;;;;;;1.00;0.60;;;;;;;;;;5045015;28;20700;-67
2022/02/14 10:19:33;;;;;;;1.83;0.65;;;;;;;;;;5045538;28;20539;-67
2022/02/14 10:21:58;;;;;;;1.30;0.70;;;;;;;;;;5037516;28;20168;-68
2022/02/14 10:24:25;;;;;;;1.00;0.50;;;;;;;;;;5046326;28;20256;-67
2022/02/14 10:26:52;;;;;;;2.05;0.75;;;;;;;;;;5048721;28;20546;-66
2022/02/14 10:29:27;;;;;;;2.83;0.57;;;;;;;;;;5037696;28;20193;-69
2022/02/14 10:31:57;;;;;;;1.10;0.60;;;;;;;;;;5052733;28;20572;-68
2022/02/14 10:34:34;;;;;;;1.65;0.50;;;;;;;;;;5043699;28;20214;-68
2022/02/14 10:37:00;;;;;;;0.40;0.38;;;;;;;;;;5038954;28;20392;-68
2022/02/14 10:39:27;;;;;;;1.15;0.63;;;;;;;;;;5045839;28;20656;-68
2022/02/14 10:42:00;;;;;;;0.65;0.50;;;;;;;;;;5041810;28;20283;-68
2022/02/14 10:47:15;;;;;;;0.50;0.50;;;;;;;;;;5041908;28;20288;-67
2022/02/14 10:49:42;;;;;;;0.90;0.40;;;;;;;;;;5046019;28;20173;-67
2022/02/14 10:52:13;;;;;;;1.58;0.38;;;;;;;;;;5042634;28;20232;-68
2022/02/14 10:54:43;;;;;;;1.75;0.60;;;;;;;;;;5043779;28;20181;-67
2022/02/14 10:57:27;;;;;;;1.40;0.45;;;;;;;;;;5048604;28;20201;-67
2022/02/14 11:00:02;;;;;;;1.15;0.70;;;;;;;;;;5045531;28;20177;-67
2022/02/14 11:02:28;;;;;;;0.82;0.70;;;;;;;;;;5045300;28;20220;-67
2022/02/14 11:04:54;;;;;;;1.67;0.60;;;;;;;;;;5047993;28;20220;-66
2022/02/14 11:07:20;;;;;;;1.20;0.60;;;;;;;;;;5045626;28;20217;-66
2022/02/14 11:09:49;;;;;;;2.38;0.75;;;;;;;;;;5048523;28;20242;-66
2022/02/14 11:12:19;;;;;;;2.25;0.65;;;;;;;;;;5042761;28;20231;-68
2022/02/14 11:14:54;;;;;;;1.10;0.60;;;;;;;;;;5044028;28;20652;-67
2022/02/14 11:17:25;;;;;;;1.92;0.80;;;;;;;;;;5045158;28;20177;-67
2022/02/14 11:19:53;;;;;;;1.50;1.00;;;;;;;;;;5046355;28;20185;-67
2022/02/14 11:22:19;;;;;;;1.33;0.80;;;;;;;;;;5046702;28;20556;-67
2022/02/14 11:24:50;;;;;;;3.03;0.90;;;;;;;;;;5042868;28;20228;-67
2022/02/14 11:27:20;;;;;;;1.52;0.80;;;;;;;;;;5043753;28;20216;-68
2022/02/14 11:29:52;;;;;;;1.67;0.95;;;;;;;;;;5044312;28;20626;-68
2022/02/14 11:32:24;;;;;;;2.35;1.20;;;;;;;;;;5042968;28;20190;-67
2022/02/14 11:35:06;;;;;;;1.67;1.15;;;;;;;;;;5041961;28;20603;-68
2022/02/14 11:37:48;;;;;;;2.95;1.27;;;;;;;;;;5048447;28;20486;-67
2022/02/14 11:40:35;;;;;;;1.65;1.33;;;;;;;;;;5044512;28;20200;-67
2022/02/14 11:43:10;;;;;;;1.40;1.30;;;;;;;;;;5039172;28;20217;-67
2022/02/14 11:45:37;;;;;;;2.65;1.88;;;;;;;;;;5053690;28;20184;-67
2022/02/14 11:48:22;;;;;;;5.53;2.20;;;;;;;;;;5042441;28;20194;-67
2022/02/14 11:50:47;;;;;;;1.98;1.77;;;;;;;;;;5044929;28;20251;-67
2022/02/14 11:53:31;;;;;;;4.07;2.28;;;;;;;;;;5039899;28;20213;-67
2022/02/14 11:56:22;;;;;;;2.72;1.98;;;;;;;;;;5042979;28;20189;-67
2022/02/14 11:59:04;;;;;;;4.63;2.30;;;;;;;;;;5045169;28;20291;-68
2022/02/14 12:01:33;;;;;;;3.65;2.40;;;;;;;;;;5045401;28;20207;-68
2022/02/14 12:04:30;;;;;;;2.67;2.47;;;;;;;;;;5051303;28;20215;-68
2022/02/14 12:07:20;;;;;;;4.05;2.72;;;;;;;;;;5044773;28;20319;-67
2022/02/14 12:10:01;;;;;;;4.07;2.72;;;;;;;;;;5045451;28;20189;-67
2022/02/14 12:12:56;;;;;;;3.55;2.63;;;;;;;;;;5048580;28;20241;-67
2022/02/14 12:20:34;;;;;;;6.30;2.78;;;;;;;;;;5044693;28;20189;-68
2022/02/14 12:21:06;;;;;;;4.28;2.38;;;;;;;;;;5042454;28;20196;-67
2022/02/14 12:23:40;;;;;;;3.42;2.00;;;;;;;;;;5046323;28;20216;-68
2022/02/14 12:26:06;;;;;;;3.22;2.00;;;;;;;;;;5043837;28;20177;-68
2022/02/14 12:28:33;;;;;;;2.45;1.85;;;;;;;;;;5046658;28;20224;-68
2022/02/14 12:30:59;;;;;;;4.20;1.48;;;;;;;;;;5043565;28;20207;-67
2022/02/14 12:33:25;;;;;;;1.73;1.02;;;;;;;;;;5047731;28;20190;-68
2022/02/14 12:35:56;;;;;;;4.00;1.10;;;;;;;;;;5043680;28;20185;-67
2022/02/14 12:38:27;;;;;;;2.67;1.05;;;;;;;;;;5044625;28;20185;-67
2022/02/14 12:40:58;;;;;;;1.95;0.95;;;;;;;;;;5053634;28;20216;-67
2022/02/14 12:43:41;;;;;;;3.60;1.15;;;;;;;;;;5042063;28;20205;-67
2022/02/14 12:46:22;;;;;;;2.53;1.00;;;;;;;;;;5045865;28;20187;-67
2022/02/14 12:48:55;;;;;;;2.05;1.20;;;;;;;;;;5043674;28;20193;-67
2022/02/14 12:51:23;;;;;;;2.78;1.10;;;;;;;;;;5055845;28;20210;-67
2022/02/14 12:54:09;;;;;;;4.00;1.27;;;;;;;;;;5050819;28;20202;-67
2022/02/14 12:56:37;;;;;;;3.05;1.40;;;;;;;;;;5053072;28;20201;-68
2022/02/14 12:59:05;;;;;;;2.63;1.40;;;;;;;;;;5045203;28;20247;-66
2022/02/14 13:01:36;;;;;;;2.10;1.48;;;;;;;;;;5042844;28;20702;-68
2022/02/14 13:04:05;;;;;;;2.63;1.30;;;;;;;;;;5044316;28;20205;-67
2022/02/14 13:06:40;;;;;;;2.53;1.30;;;;;;;;;;5043833;28;20278;-67
2022/02/14 13:09:22;;;;;;;2.80;1.33;;;;;;;;;;5048051;28;20669;-67
2022/02/14 13:11:49;;;;;;;4.13;1.58;;;;;;;;;;5043795;28;20217;-67
2022/02/14 13:14:24;;;;;;;2.13;1.30;;;;;;;;;;5051420;28;20234;-68
2022/02/14 13:16:51;;;;;;;2.83;1.40;;;;;;;;;;5045040;28;20209;-68
2022/02/14 13:19:16;;;;;;;2.42;1.38;;;;;;;;;;5051839;28;20189;-67
2022/02/14 13:21:43;;;;;;;3.92;1.20;;;;;;;;;;5045546;28;20182;-68
2022/02/14 13:24:21;;;;;;;3.30;1.20;;;;;;;;;;5045585;28;20579;-67
2022/02/14 13:26:58;;;;;;;3.47;1.40;;;;;;;;;;5047319;28;20212;-67
2022/02/14 13:29:53;;;;;;;3.10;1.00;;;;;;;;;;5047031;28;20556;-67
2022/02/14 13:32:22;;;;;;;6.40;1.27;;;;;;;;;;5045939;28;20189;-67
2022/02/14 13:35:08;;;;;;;2.50;0.85;;;;;;;;;;5048084;28;20212;-67
2022/02/14 13:37:42;;;;;;;2.05;0.85;;;;;;;;;;5038892;28;20195;-67
2022/02/14 13:40:33;;;;;;;3.25;0.95;;;;;;;;;;5051859;28;20317;-68
2022/02/14 13:43:07;;;;;;;3.60;0.90;;;;;;;;;;5044039;28;20211;-68
2022/02/14 13:45:48;;;;;;;4.90;0.98;;;;;;;;;;5048422;28;20201;-67
2022/02/14 13:48:16;;;;;;;2.63;0.70;;;;;;;;;;5039816;28;20224;-68
2022/02/14 13:50:43;;;;;;;2.83;0.75;;;;;;;;;;5040114;28;20169;-67
2022/02/14 13:53:29;;;;;;;1.73;0.70;;;;;;;;;;5044860;28;20356;-67
2022/02/14 13:56:12;;;;;;;1.38;0.50;;;;;;;;;;5051252;28;20192;-66
2022/02/14 13:58:42;;;;;;;3.30;0.60;;;;;;;;;;5045744;28;20223;-66
2022/02/14 14:01:21;;;;;;;3.58;0.60;;;;;;;;;;5044105;28;20181;-67
2022/02/14 14:03:49;;;;;;;3.60;0.68;;;;;;;;;;5045562;28;20219;-67
2022/02/14 14:06:37;;;;;;;2.95;0.63;;;;;;;;;;5044438;28;20225;-67
2022/02/14 14:09:22;;;;;;;1.83;0.68;;;;;;;;;;5047604;28;20268;-67
2022/02/14 14:11:48;;;;;;;2.67;0.70;;;;;;;;;;5046380;28;20209;-67
2022/02/14 14:14:31;;;;;;;4.18;0.70;;;;;;;;;;5048057;28;20216;-67
2022/02/14 14:16:57;;;;;;;1.20;0.47;;;;;;;;;;5043647;28;20185;-67
2022/02/14 14:19:22;;;;;;;3.95;0.60;;;;;;;;;;5045500;28;20185;-68
2022/02/14 14:21:47;;;;;;;6.28;0.75;;;;;;;;;;5046840;28;20225;-67
2022/02/14 14:24:13;;;;;;;2.47;0.50;;;;;;;;;;5039900;28;20278;-67
2022/02/14 14:26:39;;;;;;;3.83;0.82;;;;;;;;;;5044627;28;20276;-67
2022/02/14 14:29:04;;;;;;;2.72;0.77;;;;;;;;;;5040676;28;20264;-67
2022/02/14 14:31:30;;;;;;;2.95;0.80;;;;;;;;;;5040536;28;20251;-67
2022/02/14 14:33:55;;;;;;;1.67;0.70;;;;;;;;;;5038709;28;20182;-67
2022/02/14 14:36:20;;;;;;;0.57;0.40;;;;;;;;;;5048277;28;20265;-67
2022/02/14 14:38:48;;;;;;;5.82;0.60;;;;;;;;;;5044513;28;20215;-67
2022/02/14 14:41:13;;;;;;;5.75;0.80;;;;;;;;;;5046693;28;20208;-68
2022/02/14 14:43:38;;;;;;;3.22;1.02;;;;;;;;;;5042082;28;20623;-68
2022/02/14 14:46:04;;;;;;;2.63;0.60;;;;;;;;;;5040203;28;20488;-68
2022/02/14 14:48:29;;;;;;;3.10;0.60;;;;;;;;;;5044208;28;20232;-68
2022/02/14 14:50:55;;;;;;;3.72;0.60;;;;;;;;;;5039824;28;20288;-68
2022/02/14 14:53:20;;;;;;;4.03;0.52;;;;;;;;;;5040153;28;20268;-67
2022/02/14 14:55:46;;;;;;;8.23;0.80;;;;;;;;;;5039103;28;20216;-68